Time;durP1;ratioP1;P1;durP2;ratioP2;P2;SDS_P1;SDS_P2;PMS_P1;PMS_P2;Temp;Humidity;BMP_temperature;BMP_pressure;BME280_temperature;BME280_humidity;BME280_pressure;Samples;Min_cycle;Max_cycle;Signal;HPM_P1;HPM_P2
2022/08/30 00:01:23;;;;;;;1.05;0.47;;;;;;;18.29;64.78;102175.19;6236617;28;20229;-71
2022/08/30 00:04:45;;;;;;;0.98;0.95;;;;;;;18.43;64.58;102167.47;6236787;28;20573;-71
2022/08/30 00:08:06;;;;;;;0.70;0.70;;;;;;;18.33;64.53;102171.16;6239893;28;20241;-72
2022/08/30 00:11:28;;;;;;;0.60;0.60;;;;;;;18.38;64.33;102165.22;6236421;28;20603;-72
2022/08/30 00:14:49;;;;;;;0.98;0.70;;;;;;;18.33;64.15;102154.78;6237638;28;20252;-72
2022/08/30 00:18:10;;;;;;;0.52;0.52;;;;;;;18.34;64.31;102161.06;6239034;28;20317;-72
2022/08/30 00:21:32;;;;;;;0.75;0.57;;;;;;;18.26;64.51;102166.44;6237859;28;20236;-72
2022/08/30 00:24:53;;;;;;;0.47;0.40;;;;;;;18.12;64.51;102167.84;6238637;28;20233;-72
2022/08/30 00:28:15;;;;;;;0.57;0.52;;;;;;;18.08;64.90;102168.31;6238995;28;20672;-72
2022/08/30 00:31:36;;;;;;;1.00;0.85;;;;;;;18.23;64.57;102172.25;6237583;28;20621;-71
2022/08/30 00:34:57;;;;;;;1.05;0.63;;;;;;;18.34;64.22;102177.44;6237409;28;20248;-71
2022/08/30 00:38:20;;;;;;;0.50;0.40;;;;;;;18.21;64.75;102180.56;6237314;28;20809;-72
2022/08/30 00:41:41;;;;;;;0.73;0.60;;;;;;;18.20;64.09;102180.72;6238508;28;20224;-72
2022/08/30 00:45:11;;;;;;;1.33;0.95;;;;;;;18.21;64.47;102186.03;6231760;28;20236;-71
2022/08/30 00:48:35;;;;;;;0.43;0.43;;;;;;;18.24;64.27;102184.84;6237990;28;20236;-71
2022/08/30 00:51:57;;;;;;;0.90;0.50;;;;;;;18.25;64.60;102192.88;6237658;28;20248;-71
2022/08/30 00:55:21;;;;;;;1.08;0.98;;;;;;;18.18;64.45;102188.22;6236487;28;20547;-71
2022/08/30 00:58:45;;;;;;;2.15;0.85;;;;;;;18.26;64.42;102188.28;6235402;28;20515;-71
2022/08/30 01:02:06;;;;;;;1.17;0.93;;;;;;;18.28;64.31;102186.25;6233231;28;20232;-71
2022/08/30 01:05:27;;;;;;;1.30;0.80;;;;;;;18.31;64.14;102191.44;6233839;28;20592;-72
2022/08/30 01:08:49;;;;;;;6.40;0.60;;;;;;;18.27;64.28;102190.84;6230088;28;20325;-72
2022/08/30 01:12:11;;;;;;;0.60;0.50;;;;;;;18.27;64.29;102203.69;6224352;28;20228;-71
2022/08/30 01:15:33;;;;;;;1.15;0.73;;;;;;;18.16;64.67;102206.59;6233594;28;20256;-72
2022/08/30 01:18:57;;;;;;;0.60;0.60;;;;;;;18.27;64.51;102206.41;6214162;28;20223;-71
2022/08/30 01:22:24;;;;;;;1.55;1.02;;;;;;;18.34;64.00;102213.81;6231435;28;21281;-72
2022/08/30 01:25:48;;;;;;;1.20;0.60;;;;;;;18.42;63.96;102210.31;6232888;28;20232;-71
2022/08/30 01:29:15;;;;;;;0.63;0.52;;;;;;;18.29;63.87;102209.84;6228914;28;20229;-72
2022/08/30 01:32:41;;;;;;;0.75;0.55;;;;;;;18.17;64.15;102211.91;6231659;28;20233;-71
2022/08/30 01:36:06;;;;;;;1.42;0.60;;;;;;;18.22;64.09;102225.09;6224810;28;20236;-72
2022/08/30 01:39:27;;;;;;;1.30;0.68;;;;;;;18.23;64.26;102215.91;6235476;28;20228;-72
2022/08/30 01:42:49;;;;;;;0.90;0.50;;;;;;;18.33;64.14;102216.72;6216789;28;20217;-72
2022/08/30 01:46:11;;;;;;;1.05;0.63;;;;;;;18.37;64.00;102212.66;6208360;28;20531;-72
2022/08/30 01:49:32;;;;;;;2.63;0.50;;;;;;;18.37;63.78;102212.66;6201769;28;20229;-72
2022/08/30 01:52:52;;;;;;;0.43;0.43;;;;;;;18.27;64.04;102206.41;6204543;28;20308;-72
2022/08/30 01:56:14;;;;;;;0.35;0.35;;;;;;;18.32;64.03;102206.78;6200732;28;20520;-72
2022/08/30 01:59:38;;;;;;;0.88;0.80;;;;;;;18.36;63.65;102202.72;6205353;28;20239;-72
2022/08/30 02:02:59;;;;;;;1.35;1.05;;;;;;;18.38;63.63;102205.34;6207819;28;20333;-71
2022/08/30 02:06:20;;;;;;;0.75;0.60;;;;;;;18.30;63.36;102196.03;6209754;28;20237;-71
2022/08/30 02:09:41;;;;;;;2.28;1.15;;;;;;;18.27;63.58;102196.31;6213194;28;20228;-71
2022/08/30 02:13:03;;;;;;;1.85;0.60;;;;;;;18.16;63.87;102198.41;6234058;28;20232;-71
2022/08/30 02:16:26;;;;;;;0.93;0.50;;;;;;;18.21;63.70;102204.28;6230780;28;20232;-71
2022/08/30 02:19:47;;;;;;;0.70;0.70;;;;;;;18.25;63.68;102195.63;6228337;28;20232;-71
2022/08/30 02:23:08;;;;;;;0.55;0.52;;;;;;;18.19;63.63;102198.13;6233725;28;20512;-71
2022/08/30 02:26:29;;;;;;;1.60;0.80;;;;;;;18.09;63.80;102200.03;6235368;28;20295;-72
2022/08/30 02:29:50;;;;;;;0.40;0.40;;;;;;;18.04;63.89;102195.06;6231222;28;21120;-71
2022/08/30 02:33:12;;;;;;;1.95;0.50;;;;;;;18.10;64.01;102193.56;6234707;28;20229;-71
2022/08/30 02:36:33;;;;;;;0.73;0.45;;;;;;;18.05;64.20;102201.34;6233927;28;20221;-72
2022/08/30 02:39:54;;;;;;;0.70;0.60;;;;;;;17.98;64.35;102195.63;6233281;28;20670;-71
2022/08/30 02:43:16;;;;;;;0.73;0.50;;;;;;;17.90;64.32;102200.16;6235943;28;20224;-72
2022/08/30 02:46:37;;;;;;;0.73;0.50;;;;;;;17.89;64.83;102198.44;6231731;28;20363;-72
2022/08/30 02:49:59;;;;;;;0.77;0.68;;;;;;;17.88;64.75;102199.41;6234369;28;20877;-72
2022/08/30 02:53:21;;;;;;;2.17;1.17;;;;;;;17.94;64.54;102201.56;6234448;28;20603;-71
2022/08/30 02:56:42;;;;;;;3.10;0.98;;;;;;;17.93;64.94;102197.13;6233411;28;20319;-72
2022/08/30 03:00:06;;;;;;;1.17;0.80;;;;;;;18.02;64.48;102202.50;6227168;28;20512;-72
2022/08/30 03:03:27;;;;;;;1.45;0.80;;;;;;;17.99;64.60;102194.63;6235828;28;20492;-71
2022/08/30 03:06:49;;;;;;;0.98;0.80;;;;;;;17.93;64.78;102208.03;6235005;28;20515;-72
2022/08/30 03:10:11;;;;;;;0.70;0.70;;;;;;;17.97;64.58;102201.25;6222209;28;20625;-72
2022/08/30 03:13:32;;;;;;;1.05;0.60;;;;;;;17.93;64.90;102197.13;6236723;28;20480;-72
2022/08/30 03:16:53;;;;;;;2.35;1.30;;;;;;;17.86;64.96;102193.25;6237094;28;20367;-73
2022/08/30 03:20:15;;;;;;;0.50;0.50;;;;;;;17.80;65.19;102194.72;6239490;28;20882;-72
2022/08/30 03:23:37;;;;;;;1.05;1.05;;;;;;;17.84;65.50;102200.75;6238049;28;20228;-72
2022/08/30 03:26:58;;;;;;;1.08;0.73;;;;;;;17.79;66.10;102195.75;6236432;28;20426;-72
2022/08/30 03:30:20;;;;;;;0.60;0.60;;;;;;;17.71;67.47;102201.06;6235160;28;20614;-72
2022/08/30 03:33:42;;;;;;;0.88;0.52;;;;;;;17.69;68.02;102194.09;6239816;28;20252;-72
2022/08/30 03:37:02;;;;;;;1.25;1.00;;;;;;;17.72;68.70;102205.53;6237686;28;20228;-72
2022/08/30 03:40:25;;;;;;;0.75;0.70;;;;;;;17.75;68.86;102207.13;6238714;28;20627;-72
2022/08/30 03:43:46;;;;;;;1.65;1.05;;;;;;;17.66;69.26;102205.28;6237572;28;20223;-72
2022/08/30 03:47:07;;;;;;;2.15;1.13;;;;;;;17.60;69.48;102203.16;6236197;28;20254;-72
2022/08/30 03:50:29;;;;;;;0.63;0.63;;;;;;;17.66;69.63;102202.53;6235070;28;20626;-72
2022/08/30 03:53:50;;;;;;;1.77;1.45;;;;;;;17.58;70.30;102204.13;6237822;28;20230;-72
2022/08/30 03:57:13;;;;;;;14.93;12.25;;;;;;;17.58;70.27;102192.41;6237568;28;20236;-72
2022/08/30 04:00:35;;;;;;;2.65;2.38;;;;;;;17.52;70.67;102195.72;6237120;28;20347;-72
2022/08/30 04:03:56;;;;;;;2.63;2.05;;;;;;;17.45;71.31;102192.69;6238194;28;20319;-72
2022/08/30 04:07:18;;;;;;;8.23;5.78;;;;;;;17.44;71.46;102198.28;6235427;28;20229;-72
2022/08/30 04:10:39;;;;;;;7.57;6.88;;;;;;;17.42;71.80;102209.34;6236161;28;20232;-72
2022/08/30 04:14:01;;;;;;;3.17;2.80;;;;;;;17.48;71.37;102202.44;6234113;28;20629;-72
2022/08/30 04:17:22;;;;;;;2.83;2.30;;;;;;;17.51;71.16;102211.22;6241211;28;20225;-72
2022/08/30 04:20:43;;;;;;;1.60;1.13;;;;;;;17.50;71.46;102198.56;6238230;28;20240;-72
2022/08/30 04:24:05;;;;;;;1.85;1.02;;;;;;;17.64;70.91;102201.84;6238246;28;20241;-72
2022/08/30 04:27:26;;;;;;;2.38;1.73;;;;;;;17.55;71.19;102198.13;6237251;28;20225;-71
2022/08/30 04:30:48;;;;;;;2.70;1.30;;;;;;;17.56;71.26;102197.97;6236210;28;20224;-72
2022/08/30 04:34:09;;;;;;;7.05;1.52;;;;;;;17.47;71.67;102198.00;6231170;28;20233;-72
2022/08/30 04:37:31;;;;;;;3.50;1.45;;;;;;;17.45;71.40;102206.31;6214474;28;20610;-72
2022/08/30 04:40:53;;;;;;;1.52;1.05;;;;;;;17.47;71.24;102204.31;6211829;28;20256;-72
2022/08/30 04:44:14;;;;;;;1.95;1.35;;;;;;;17.51;71.17;102216.66;6212539;28;20236;-72
2022/08/30 04:47:37;;;;;;;1.50;1.25;;;;;;;17.58;71.27;102217.78;6208019;28;20233;-71
2022/08/30 04:50:58;;;;;;;2.15;1.23;;;;;;;17.66;70.53;102213.47;6212104;28;20233;-72
2022/08/30 04:54:19;;;;;;;0.80;0.80;;;;;;;17.56;70.78;102214.34;6213787;28;20237;-71
2022/08/30 04:57:42;;;;;;;0.68;0.68;;;;;;;17.52;71.04;102220.25;6210573;28;20229;-72
2022/08/30 05:01:03;;;;;;;1.40;0.82;;;;;;;17.54;70.92;102216.34;6200417;28;20229;-72
2022/08/30 05:04:26;;;;;;;2.08;1.17;;;;;;;17.52;70.73;102223.00;6212589;28;20216;-72
2022/08/30 05:07:46;;;;;;;0.50;0.50;;;;;;;17.53;70.89;102221.97;6211692;28;20221;-72
2022/08/30 05:11:09;;;;;;;1.00;0.85;;;;;;;17.64;70.25;102223.66;6205651;28;20233;-72
2022/08/30 05:14:29;;;;;;;0.60;0.60;;;;;;;17.60;70.75;102225.84;6211956;28;20241;-72
2022/08/30 05:17:50;;;;;;;1.23;0.60;;;;;;;17.76;70.57;102234.25;6211507;28;20237;-71
2022/08/30 05:21:15;;;;;;;0.90;0.52;;;;;;;17.81;70.00;102239.25;6223840;28;20236;-71
2022/08/30 05:24:37;;;;;;;2.05;0.93;;;;;;;17.73;70.24;102245.44;6237380;28;20265;-72
2022/08/30 05:27:57;;;;;;;0.70;0.70;;;;;;;17.75;70.37;102235.25;6235317;28;20498;-72
2022/08/30 05:31:22;;;;;;;2.67;1.15;;;;;;;17.84;70.02;102236.22;6229690;28;20632;-72
2022/08/30 05:34:43;;;;;;;2.05;0.63;;;;;;;17.81;69.96;102237.38;6230208;28;20989;-72
2022/08/30 05:38:05;;;;;;;0.52;0.52;;;;;;;17.86;69.94;102235.06;6223463;28;20490;-72
2022/08/30 05:41:26;;;;;;;0.60;0.60;;;;;;;17.96;69.74;102235.03;6223870;28;20228;-71
2022/08/30 05:44:52;;;;;;;1.23;0.98;;;;;;;18.02;69.46;102239.88;6236129;28;20227;-72
2022/08/30 05:48:13;;;;;;;1.98;1.15;;;;;;;18.05;68.92;102242.28;6213274;28;20249;-72
2022/08/30 05:51:36;;;;;;;0.70;0.70;;;;;;;18.15;69.04;102240.38;6210602;28;20229;-72
2022/08/30 05:54:58;;;;;;;1.02;0.80;;;;;;;18.26;68.14;102234.72;6236003;28;20331;-72
2022/08/30 05:58:19;;;;;;;2.35;1.10;;;;;;;18.31;68.39;102240.59;6234733;28;20252;-72
2022/08/30 06:01:44;;;;;;;2.60;0.70;;;;;;;18.30;67.88;102244.31;6212743;28;20634;-71
2022/08/30 06:05:05;;;;;;;0.60;0.60;;;;;;;18.33;67.76;102244.88;6210163;28;20237;-71
2022/08/30 06:08:27;;;;;;;0.73;0.60;;;;;;;18.42;67.81;102239.50;6206291;28;20232;-71
2022/08/30 06:11:49;;;;;;;13.57;7.78;;;;;;;18.64;67.44;102241.81;6209574;28;20229;-71
2022/08/30 06:15:12;;;;;;;3.20;2.90;;;;;;;18.67;66.74;102250.56;6200431;28;20233;-72
2022/08/30 06:18:32;;;;;;;2.05;1.52;;;;;;;18.73;66.54;102244.47;6207339;28;20610;-71
2022/08/30 06:21:53;;;;;;;0.70;0.65;;;;;;;18.84;65.93;102249.72;6234627;28;20232;-72
2022/08/30 06:25:15;;;;;;;2.50;1.10;;;;;;;18.86;65.55;102255.88;6231427;28;20615;-72
2022/08/30 06:28:37;;;;;;;2.63;0.90;;;;;;;18.86;65.85;102252.28;6222091;28;20233;-72
2022/08/30 06:31:58;;;;;;;1.80;0.93;;;;;;;18.89;65.91;102247.38;6234169;28;20236;-72
2022/08/30 06:35:19;;;;;;;1.80;0.85;;;;;;;19.05;65.25;102241.19;6228145;28;20232;-72
2022/08/30 06:38:41;;;;;;;2.97;0.73;;;;;;;19.02;65.40;102246.97;6235432;28;20237;-72
2022/08/30 06:42:02;;;;;;;0.80;0.80;;;;;;;19.06;65.46;102249.25;6234271;28;20556;-72
2022/08/30 06:45:29;;;;;;;1.23;1.02;;;;;;;19.19;65.21;102259.78;6228763;28;20315;-72
2022/08/30 06:48:50;;;;;;;0.60;0.60;;;;;;;19.06;65.49;102249.25;6238489;28;20226;-72
2022/08/30 06:52:12;;;;;;;1.70;1.35;;;;;;;19.01;65.71;102248.84;6238517;28;20232;-72
2022/08/30 06:55:33;;;;;;;2.28;2.05;;;;;;;19.14;65.48;102242.97;6237194;28;20570;-72
2022/08/30 06:58:54;;;;;;;1.65;1.45;;;;;;;19.28;65.47;102249.75;6237007;28;20527;-72
2022/08/30 07:02:16;;;;;;;0.82;0.80;;;;;;;19.35;65.26;102251.72;6233983;28;20248;-72
2022/08/30 07:05:37;;;;;;;1.38;0.85;;;;;;;19.32;65.05;102251.13;6206167;28;20217;-72
2022/08/30 07:08:58;;;;;;;4.60;1.23;;;;;;;19.35;65.24;102264.53;6213725;28;20466;-71
2022/08/30 07:12:19;;;;;;;1.20;0.80;;;;;;;19.32;65.49;102256.59;6211740;28;20229;-72
2022/08/30 07:15:43;;;;;;;2.00;1.42;;;;;;;19.32;65.57;102264.81;6204983;28;20232;-72
2022/08/30 07:19:06;;;;;;;2.47;0.80;;;;;;;19.52;64.99;102256.31;6211318;28;20240;-72
2022/08/30 07:22:27;;;;;;;1.05;1.00;;;;;;;19.59;64.75;102256.50;6210868;28;20603;-72
2022/08/30 07:25:49;;;;;;;1.17;0.90;;;;;;;19.57;64.76;102266.75;6209988;28;20229;-72
2022/08/30 07:29:10;;;;;;;2.47;0.70;;;;;;;19.70;64.73;102265.31;6224713;28;20524;-73
2022/08/30 07:32:31;;;;;;;0.88;0.88;;;;;;;19.80;64.87;102268.78;6240169;28;20556;-72
2022/08/30 07:35:53;;;;;;;0.88;0.88;;;;;;;20.00;63.96;102277.63;6236555;28;20232;-72
2022/08/30 07:39:14;;;;;;;1.23;0.70;;;;;;;20.18;64.00;102269.31;6234927;28;20221;-72
2022/08/30 07:42:35;;;;;;;1.77;0.98;;;;;;;20.44;63.27;102271.00;6236432;28;20245;-72
2022/08/30 07:45:56;;;;;;;0.75;0.73;;;;;;;20.39;63.13;102272.53;6235508;28;20456;-73
2022/08/30 07:49:18;;;;;;;0.85;0.68;;;;;;;20.52;63.44;102275.66;6237390;28;20531;-71
2022/08/30 07:52:40;;;;;;;0.95;0.70;;;;;;;20.57;63.03;102276.88;6213079;28;20336;-73
2022/08/30 07:56:02;;;;;;;0.57;0.57;;;;;;;20.56;63.69;102275.16;6202046;28;20242;-72
2022/08/30 07:59:23;;;;;;;0.98;0.70;;;;;;;20.57;63.64;102276.88;6203942;28;20225;-72
2022/08/30 08:02:44;;;;;;;0.60;0.60;;;;;;;20.47;63.89;102284.38;6212066;28;20233;-71
2022/08/30 08:06:08;;;;;;;1.48;0.60;;;;;;;20.48;63.62;102291.59;6208756;28;20304;-72
2022/08/30 08:09:30;;;;;;;0.70;0.70;;;;;;;20.62;63.15;102277.25;6211896;28;20233;-73
2022/08/30 08:12:51;;;;;;;0.55;0.55;;;;;;;20.68;63.21;102283.91;6208204;28;20616;-72
2022/08/30 08:16:12;;;;;;;0.50;0.50;;;;;;;20.78;62.95;102283.78;6211462;28;20229;-73
2022/08/30 08:19:32;;;;;;;1.45;1.35;;;;;;;20.88;62.58;102295.47;6209947;28;20323;-73
2022/08/30 08:22:54;;;;;;;0.77;0.73;;;;;;;20.77;62.86;102293.88;6214721;28;20232;-71
2022/08/30 08:26:16;;;;;;;3.05;2.00;;;;;;;20.65;63.07;102297.97;6209859;28;20328;-72
2022/08/30 08:29:36;;;;;;;1.88;0.70;;;;;;;20.63;63.41;102298.13;6216030;28;20237;-72
2022/08/30 08:32:58;;;;;;;1.55;1.23;;;;;;;20.61;63.26;102293.84;6236623;28;20605;-72
2022/08/30 08:36:19;;;;;;;0.60;0.60;;;;;;;20.63;62.85;102308.25;6235804;28;20224;-72
2022/08/30 08:39:40;;;;;;;0.57;0.57;;;;;;;20.79;62.57;102299.19;6232561;28;20602;-71
2022/08/30 08:43:10;;;;;;;2.92;1.65;;;;;;;20.75;62.42;102300.56;6237596;28;20241;-72
2022/08/30 08:46:40;;;;;;;0.50;0.50;;;;;;;20.80;62.19;102304.50;6233394;28;20394;-72
2022/08/30 08:50:04;;;;;;;5.03;4.63;;;;;;;21.22;61.15;102309.91;6235358;28;20598;-73
2022/08/30 08:53:34;;;;;;;1.02;0.93;;;;;;;21.41;59.95;102306.84;6237891;28;20228;-73
2022/08/30 08:56:55;;;;;;;0.55;0.55;;;;;;;21.61;59.21;102299.97;6233760;28;20617;-73
2022/08/30 09:00:18;;;;;;;0.70;0.40;;;;;;;21.52;59.16;102306.50;6210450;28;20590;-72
2022/08/30 09:03:39;;;;;;;0.90;0.50;;;;;;;21.42;59.31;102301.16;6213215;28;20237;-72
2022/08/30 09:07:05;;;;;;;1.02;0.93;;;;;;;21.44;59.62;102314.75;6211768;28;20320;-73
2022/08/30 09:10:28;;;;;;;0.77;0.70;;;;;;;21.30;59.67;102308.03;6226595;28;20311;-72
2022/08/30 09:13:49;;;;;;;0.50;0.50;;;;;;;21.10;60.24;102312.16;6237735;28;20228;-72
2022/08/30 09:17:13;;;;;;;0.75;0.75;;;;;;;21.26;60.14;102312.16;6216064;28;20308;-72
2022/08/30 09:20:37;;;;;;;0.73;0.50;;;;;;;21.43;60.63;102304.78;6218297;28;20224;-72
2022/08/30 09:24:03;;;;;;;1.10;0.80;;;;;;;21.46;61.24;102308.03;6212426;28;20245;-72
2022/08/30 09:27:29;;;;;;;1.23;0.95;;;;;;;21.44;61.21;102301.03;6213508;28;20237;-73
2022/08/30 09:31:03;;;;;;;0.65;0.55;;;;;;;21.35;61.21;102304.78;6232341;28;20590;-72
2022/08/30 09:34:25;;;;;;;0.52;0.52;;;;;;;21.13;61.92;102310.97;6231017;28;20240;-72
2022/08/30 09:37:53;;;;;;;0.40;0.40;;;;;;;20.92;62.08;102311.41;6232397;28;20502;-72
2022/08/30 09:41:38;;;;;;;0.32;0.32;;;;;;;20.80;62.54;102311.91;6215987;28;20245;-73
2022/08/30 09:45:10;;;;;;;0.45;0.45;;;;;;;20.68;62.98;102311.34;6226078;28;20309;-72
2022/08/30 09:48:33;;;;;;;0.60;0.60;;;;;;;20.76;62.95;102316.00;6235853;28;20642;-72
2022/08/30 09:52:09;;;;;;;1.85;0.50;;;;;;;20.91;62.60;102317.91;6232721;28;20240;-71
2022/08/30 09:55:49;;;;;;;0.82;0.60;;;;;;;20.77;62.04;102315.81;6231280;28;20240;-72
2022/08/30 09:59:23;;;;;;;2.95;1.60;;;;;;;20.66;61.70;102321.59;6231486;28;20512;-72
2022/08/30 10:03:15;;;;;;;0.45;0.45;;;;;;;20.64;60.91;102321.78;6232597;28;20232;-72
2022/08/30 10:06:43;;;;;;;0.93;0.70;;;;;;;21.25;59.87;102317.81;6234317;28;20708;-71
2022/08/30 10:10:14;;;;;;;0.50;0.50;;;;;;;22.32;57.01;102321.13;6226940;28;20235;-73
2022/08/30 10:13:49;;;;;;;0.60;0.60;;;;;;;22.74;54.15;102317.00;6217532;28;20220;-72
2022/08/30 10:17:15;;;;;;;0.90;0.68;;;;;;;22.81;54.24;102319.88;6206543;28;20233;-72
2022/08/30 10:20:41;;;;;;;0.63;0.60;;;;;;;22.53;54.02;102324.13;6209797;28;20237;-71
2022/08/30 10:24:07;;;;;;;0.80;0.70;;;;;;;22.77;53.80;102318.53;6212817;28;20625;-72
2022/08/30 10:27:35;;;;;;;1.33;1.23;;;;;;;22.55;53.77;102327.56;6214536;28;20228;-72
2022/08/30 10:31:02;;;;;;;1.13;1.00;;;;;;;22.77;52.03;102316.66;6220194;28;20754;-73
2022/08/30 10:34:27;;;;;;;1.17;1.08;;;;;;;23.19;51.01;102313.44;6239960;28;20228;-72
2022/08/30 10:37:52;;;;;;;1.20;1.10;;;;;;;23.14;49.56;102304.00;6235843;28;20225;-72
2022/08/30 10:41:24;;;;;;;0.65;0.50;;;;;;;23.55;49.18;102302.69;6215232;28;20240;-71
2022/08/30 10:44:49;;;;;;;0.52;0.40;;;;;;;24.08;47.29;102299.75;6226381;28;20236;-73
2022/08/30 10:48:16;;;;;;;3.55;3.25;;;;;;;24.89;45.68;102306.97;6234833;28;20225;-73
2022/08/30 10:51:44;;;;;;;1.15;1.05;;;;;;;24.89;45.90;102305.06;6240564;28;20236;-72
2022/08/30 10:55:11;;;;;;;0.50;0.50;;;;;;;25.22;43.35;102299.94;6240290;28;20227;-71
2022/08/30 10:58:33;;;;;;;2.28;0.60;;;;;;;24.90;43.36;102309.56;6215354;28;20530;-72
2022/08/30 11:02:17;;;;;;;0.90;0.40;;;;;;;25.53;42.97;102303.22;6214797;28;20553;-72
2022/08/30 11:05:58;;;;;;;0.57;0.57;;;;;;;25.41;42.99;102301.16;6235934;28;20232;-72
2022/08/30 11:09:41;;;;;;;0.40;0.40;;;;;;;26.01;41.47;102284.88;6212591;28;20318;-71
2022/08/30 11:13:07;;;;;;;0.57;0.57;;;;;;;26.29;40.68;102287.59;6218208;28;20242;-72
2022/08/30 11:16:37;;;;;;;0.70;0.60;;;;;;;26.80;40.04;102281.50;6217253;28;20663;-72
2022/08/30 11:20:02;;;;;;;1.38;0.93;;;;;;;25.79;44.37;102289.59;6217126;28;20327;-71
2022/08/30 11:23:30;;;;;;;0.47;0.47;;;;;;;26.86;43.07;102288.97;6230931;28;20236;-72
2022/08/30 11:26:57;;;;;;;0.47;0.47;;;;;;;25.69;45.00;102286.34;6236135;28;20572;-71
2022/08/30 11:30:50;;;;;;;0.88;0.43;;;;;;;24.61;47.35;102285.59;6233258;28;20225;-71
2022/08/30 11:34:11;;;;;;;1.77;1.38;;;;;;;24.01;49.00;102292.41;6233962;28;20240;-72
2022/08/30 11:37:40;;;;;;;1.60;0.70;;;;;;;23.69;49.24;102299.97;6223755;28;20229;-71
2022/08/30 11:41:08;;;;;;;0.80;0.80;;;;;;;29.34;38.20;102286.78;6219758;28;20228;-72
2022/08/30 11:44:31;;;;;;;0.95;0.60;;;;;;;33.15;30.32;102263.91;6232233;28;20645;-71
2022/08/30 11:47:53;;;;;;;0.60;0.30;;;;;;;35.31;26.84;102272.63;6236981;28;20225;-71
2022/08/30 11:51:49;;;;;;;0.40;0.40;;;;;;;37.37;24.53;102272.06;6237306;28;20236;-72
2022/08/30 11:55:37;;;;;;;0.40;0.40;;;;;;;32.56;29.86;102278.38;6228286;28;20251;-72
2022/08/30 11:59:04;;;;;;;0.60;0.47;;;;;;;31.24;32.58;102282.69;6216378;28;20225;-72
2022/08/30 12:02:47;;;;;;;0.73;0.60;;;;;;;27.96;37.88;102280.97;6219224;28;20224;-72
2022/08/30 12:06:08;;;;;;;1.92;1.73;;;;;;;26.91;40.76;102283.63;6211159;28;20236;-72
2022/08/30 12:10:05;;;;;;;0.40;0.40;;;;;;;25.58;43.03;102288.78;6204382;28;20233;-71
2022/08/30 12:13:54;;;;;;;0.45;0.40;;;;;;;28.18;37.71;102285.16;6232000;28;20228;-72
2022/08/30 12:21:22;;;;;;;0.82;0.40;;;;;;;28.51;37.06;102284.22;6233115;28;20228;-71
2022/08/30 12:24:48;;;;;;;0.77;0.75;;;;;;;30.02;34.99;102276.53;6208920;28;20671;-72
2022/08/30 12:28:12;;;;;;;0.63;0.50;;;;;;;34.93;25.76;102266.31;6208824;28;20623;-72
2022/08/30 12:31:40;;;;;;;0.30;0.30;;;;;;;36.86;24.27;102259.84;6215945;28;20264;-72
2022/08/30 12:35:04;;;;;;;0.85;0.40;;;;;;;36.90;23.68;102268.59;6211138;28;20232;-72
2022/08/30 12:38:25;;;;;;;0.65;0.65;;;;;;;37.93;21.76;102268.09;6219138;28;20224;-71
2022/08/30 12:41:46;;;;;;;0.22;0.22;;;;;;;39.04;21.24;102273.31;6208393;28;20607;-71
2022/08/30 12:45:12;;;;;;;0.73;0.50;;;;;;;39.13;20.94;102271.59;6208312;28;20245;-72
2022/08/30 12:48:38;;;;;;;0.50;0.50;;;;;;;35.52;24.39;102275.63;6211545;28;20232;-71
2022/08/30 12:52:20;;;;;;;0.20;0.20;;;;;;;34.82;26.42;102264.53;6205236;28;20596;-71
2022/08/30 12:55:53;;;;;;;1.10;1.00;;;;;;;34.88;25.71;102264.28;6208973;28;20233;-72
2022/08/30 12:59:38;;;;;;;1.50;1.40;;;;;;;33.47;27.37;102262.25;6196620;28;20324;-72
2022/08/30 13:03:02;;;;;;;0.90;0.75;;;;;;;35.60;24.88;102252.69;6205966;28;20611;-72
2022/08/30 13:06:40;;;;;;;0.68;0.68;;;;;;;36.91;23.25;102250.59;6206639;28;20221;-72
2022/08/30 13:10:18;;;;;;;1.13;0.50;;;;;;;36.48;23.54;102249.91;6210288;28;23308;-71
2022/08/30 13:13:42;;;;;;;0.45;0.45;;;;;;;31.06;30.04;102243.75;6210088;28;20229;-72
2022/08/30 13:17:09;;;;;;;0.52;0.52;;;;;;;28.58;34.45;102240.66;6231302;28;20224;-71
2022/08/30 13:20:30;;;;;;;0.40;0.40;;;;;;;33.34;27.63;102237.41;6233959;28;20228;-72
2022/08/30 13:23:56;;;;;;;0.30;0.30;;;;;;;36.32;24.22;102250.06;6230864;28;20232;-72
2022/08/30 13:27:17;;;;;;;0.55;0.55;;;;;;;33.36;27.18;102240.81;6229716;28;20228;-72
2022/08/30 13:30:38;;;;;;;1.15;1.02;;;;;;;29.36;33.49;102248.47;6230497;28;20241;-70
2022/08/30 13:34:01;;;;;;;0.50;0.50;;;;;;;28.00;36.21;102253.63;6231542;28;20232;-72
2022/08/30 13:37:25;;;;;;;0.63;0.60;;;;;;;28.20;35.42;102252.53;6233925;28;20232;-72
2022/08/30 13:40:47;;;;;;;0.95;0.50;;;;;;;33.16;26.87;102236.81;6208039;28;20320;-72
2022/08/30 13:44:08;;;;;;;0.77;0.57;;;;;;;31.50;29.08;102242.41;6210722;28;20246;-71
2022/08/30 13:47:30;;;;;;;0.55;0.55;;;;;;;27.91;34.46;102241.91;6210272;28;20228;-71
2022/08/30 13:50:52;;;;;;;0.68;0.57;;;;;;;26.17;38.50;102243.09;6228177;28;20220;-72
2022/08/30 13:54:13;;;;;;;0.40;0.40;;;;;;;25.20;39.85;102246.81;6213461;28;20225;-71
2022/08/30 13:57:35;;;;;;;1.50;0.35;;;;;;;24.79;39.87;102243.84;6230216;28;20240;-72
2022/08/30 14:00:56;;;;;;;0.57;0.40;;;;;;;24.50;41.08;102239.25;6231629;28;20492;-71
2022/08/30 14:04:17;;;;;;;0.40;0.40;;;;;;;24.61;40.41;102243.41;6229586;28;20515;-72
2022/08/30 14:07:38;;;;;;;0.93;0.80;;;;;;;24.60;40.19;102233.41;6206769;28;20228;-72
2022/08/30 14:10:59;;;;;;;1.30;0.85;;;;;;;28.25;33.06;102237.97;6231648;28;20232;-72
2022/08/30 14:14:21;;;;;;;0.40;0.40;;;;;;;30.55;29.94;102232.25;6228499;28;20232;-72
2022/08/30 14:17:42;;;;;;;0.50;0.47;;;;;;;32.01;27.56;102227.72;6234901;28;20319;-73
2022/08/30 14:21:03;;;;;;;2.25;0.70;;;;;;;31.82;27.10;102228.94;6234685;28;20231;-71
2022/08/30 14:24:24;;;;;;;0.43;0.43;;;;;;;31.77;27.60;102228.81;6208910;28;20240;-72
2022/08/30 14:27:45;;;;;;;0.50;0.50;;;;;;;28.83;31.54;102236.03;6211366;28;20324;-71
2022/08/30 14:31:08;;;;;;;0.63;0.63;;;;;;;29.53;30.69;102230.16;6209364;28;20237;-72
2022/08/30 14:34:29;;;;;;;2.60;0.80;;;;;;;29.77;30.45;102232.09;6205664;28;20300;-71
2022/08/30 14:37:50;;;;;;;0.45;0.40;;;;;;;29.42;31.19;102235.59;6212044;28;20634;-72
2022/08/30 14:41:11;;;;;;;0.50;0.50;;;;;;;28.77;31.56;102223.88;6207975;28;20550;-72
2022/08/30 14:44:33;;;;;;;0.40;0.28;;;;;;;28.76;31.85;102221.31;6205421;28;20282;-72
2022/08/30 14:47:56;;;;;;;0.50;0.50;;;;;;;28.39;32.60;102226.59;6207071;28;20233;-72
2022/08/30 14:51:19;;;;;;;3.63;0.88;;;;;;;28.19;32.95;102227.78;6205284;28;20542;-72
2022/08/30 14:54:40;;;;;;;0.98;0.50;;;;;;;27.98;33.22;102230.81;6208941;28;20404;-72
2022/08/30 14:58:02;;;;;;;0.50;0.43;;;;;;;27.15;34.63;102231.47;6233813;28;20236;-71
2022/08/30 15:01:23;;;;;;;1.10;0.98;;;;;;;26.02;36.12;102231.28;6231318;28;20236;-72
2022/08/30 15:04:45;;;;;;;0.30;0.30;;;;;;;25.62;36.94;102235.69;6230720;28;20315;-71
2022/08/30 15:08:06;;;;;;;1.17;0.55;;;;;;;26.58;36.16;102237.50;6237363;28;20240;-72
2022/08/30 15:11:27;;;;;;;0.25;0.25;;;;;;;26.23;36.23;102239.50;6241242;28;20244;-71
2022/08/30 15:14:48;;;;;;;0.50;0.50;;;;;;;25.59;37.38;102238.03;6235167;28;20603;-72
2022/08/30 15:18:09;;;;;;;0.75;0.47;;;;;;;24.74;38.95;102243.56;6235783;28;20323;-72
2022/08/30 15:21:34;;;;;;;1.67;1.15;;;;;;;25.91;37.36;102242.94;6238310;28;20228;-72
2022/08/30 15:24:55;;;;;;;0.60;0.55;;;;;;;26.45;36.19;102235.53;6244131;28;20227;-73
2022/08/30 15:28:16;;;;;;;0.90;0.50;;;;;;;26.26;36.20;102232.72;6232838;28;20224;-73
2022/08/30 15:31:37;;;;;;;0.40;0.40;;;;;;;26.65;35.87;102236.47;6232051;28;20566;-72
2022/08/30 15:34:59;;;;;;;1.00;0.65;;;;;;;26.50;36.30;102237.69;6238164;28;20229;-73
2022/08/30 15:38:22;;;;;;;0.90;0.60;;;;;;;25.68;36.79;102232.13;6239372;28;20232;-72
2022/08/30 15:41:44;;;;;;;0.43;0.40;;;;;;;26.23;36.31;102231.22;6237995;28;20232;-71
2022/08/30 15:45:06;;;;;;;2.50;0.45;;;;;;;26.16;36.88;102240.53;6232873;28;20232;-71
2022/08/30 15:48:27;;;;;;;0.98;0.47;;;;;;;26.47;37.33;102227.06;6233888;28;20240;-71
2022/08/30 15:51:50;;;;;;;0.55;0.45;;;;;;;26.52;37.51;102230.91;6218282;28;20245;-71